createdAt,value
2023-03-08T00:00:14.400Z,22.37
2023-03-08T00:02:40.825Z,28.13
2023-03-08T00:05:08.040Z,29.27
2023-03-08T00:07:34.879Z,24.80
2023-03-08T00:10:01.308Z,14.63
2023-03-08T00:12:28.597Z,21.67
2023-03-08T00:14:55.030Z,16.93
2023-03-08T00:17:21.688Z,23.23
2023-03-08T00:19:50.677Z,20.10
2023-03-08T00:22:17.101Z,25.30
2023-03-08T00:24:43.653Z,19.20
2023-03-08T00:27:10.068Z,21.53
2023-03-08T00:29:36.502Z,23.67
2023-03-08T00:32:02.963Z,31.37
2023-03-08T00:34:29.377Z,29.20
2023-03-08T00:36:55.828Z,18.27
2023-03-08T00:39:22.331Z,22.97
2023-03-08T00:41:48.878Z,23.20
2023-03-08T00:44:15.323Z,18.57
2023-03-08T00:46:41.769Z,29.47
2023-03-08T00:49:14.586Z,26.07
2023-03-08T00:51:41.118Z,37.50
2023-03-08T00:54:09.501Z,40.10
2023-03-08T00:56:35.952Z,36.20
2023-03-08T00:59:02.430Z,22.63
2023-03-08T01:01:29.037Z,39.57
2023-03-08T01:03:55.540Z,43.30
2023-03-08T01:06:23.142Z,44.53
2023-03-08T01:08:49.592Z,40.03
2023-03-08T01:11:21.101Z,35.57
2023-03-08T01:13:48.338Z,49.13
2023-03-08T01:16:19.445Z,29.07
2023-03-08T01:18:45.950Z,41.57
2023-03-08T01:21:12.400Z,34.23
2023-03-08T01:23:39.926Z,36.10
2023-03-08T01:26:15.841Z,36.90
2023-03-08T01:28:42.498Z,25.87
2023-03-08T01:31:11.221Z,27.33
2023-03-08T01:33:39.962Z,26.83
2023-03-08T01:36:08.480Z,33.30
2023-03-08T01:38:35.267Z,23.57
2023-03-08T01:41:02.510Z,22.17
2023-03-08T01:43:33.442Z,27.53
2023-03-08T01:46:03.840Z,22.63
2023-03-08T01:48:32.216Z,21.23
2023-03-08T01:51:03.237Z,26.37
2023-03-08T01:53:30.258Z,24.97
2023-03-08T01:55:56.684Z,25.93
2023-03-08T01:58:23.523Z,24.03
2023-03-08T02:00:49.977Z,32.53
2023-03-08T02:03:17.118Z,21.13
2023-03-08T02:05:44.202Z,24.20
2023-03-08T02:08:16.146Z,34.60
2023-03-08T02:10:44.095Z,46.50
2023-03-08T02:13:10.851Z,34.60
2023-03-08T02:15:40.916Z,34.23
2023-03-08T02:18:07.414Z,44.83
2023-03-08T02:20:35.647Z,44.40
2023-03-08T02:23:12.856Z,34.90
2023-03-08T02:25:41.670Z,43.53
2023-03-08T02:28:08.538Z,48.03
2023-03-08T02:30:36.862Z,36.77
2023-03-08T02:33:03.927Z,39.10
2023-03-08T02:35:30.386Z,43.20
2023-03-08T02:37:56.808Z,61.83
2023-03-08T02:40:23.837Z,44.27
2023-03-08T02:42:52.828Z,59.47
2023-03-08T02:45:19.818Z,46.10
2023-03-08T02:47:46.349Z,55.23
2023-03-08T02:50:12.926Z,59.30
2023-03-08T02:52:39.406Z,41.50
2023-03-08T02:55:06.196Z,41.50
2023-03-08T02:57:32.704Z,33.30
2023-03-08T02:59:59.216Z,39.57
2023-03-08T03:02:27.900Z,41.00
2023-03-08T03:04:54.363Z,58.73
2023-03-08T03:07:21.042Z,46.57
2023-03-08T03:09:49.574Z,38.07
2023-03-08T03:12:17.239Z,40.23
2023-03-08T03:14:43.966Z,44.57
2023-03-08T03:17:10.779Z,44.80
2023-03-08T03:19:37.826Z,36.40
2023-03-08T03:22:04.409Z,41.47
2023-03-08T03:24:30.970Z,44.97
2023-03-08T03:26:59.003Z,47.13
2023-03-08T03:29:28.615Z,35.87
2023-03-08T03:32:07.990Z,35.40
2023-03-08T03:34:34.469Z,53.77
2023-03-08T03:37:01.024Z,54.10
2023-03-08T03:39:30.640Z,52.57
2023-03-08T03:41:57.253Z,40.93
2023-03-08T03:44:24.009Z,56.47
2023-03-08T03:46:50.768Z,51.30
2023-03-08T03:49:22.573Z,38.27
2023-03-08T03:51:49.163Z,43.73
2023-03-08T03:54:23.168Z,47.57
2023-03-08T03:56:49.887Z,52.70
2023-03-08T03:59:19.659Z,51.50
2023-03-08T04:01:46.867Z,64.63
2023-03-08T04:04:22.227Z,53.23
2023-03-08T04:06:49.403Z,63.40
2023-03-08T04:09:19.631Z,60.50
2023-03-08T04:11:53.090Z,59.43
2023-03-08T04:14:21.823Z,69.60
2023-03-08T04:16:49.974Z,102.73
2023-03-08T04:19:24.849Z,116.37
2023-03-08T04:21:53.905Z,63.87
2023-03-08T04:24:23.620Z,91.83
2023-03-08T04:26:53.492Z,88.60
2023-03-08T04:29:21.208Z,91.13
2023-03-08T04:31:48.299Z,72.20
2023-03-08T04:34:18.157Z,103.17
2023-03-08T04:36:47.788Z,81.03
2023-03-08T04:39:14.535Z,89.80
2023-03-08T04:41:41.307Z,110.83
2023-03-08T04:44:18.288Z,79.57
2023-03-08T04:46:48.895Z,93.03
2023-03-08T04:49:21.784Z,67.40
2023-03-08T04:51:52.944Z,108.07
2023-03-08T04:54:19.924Z,99.17
2023-03-08T04:56:52.377Z,89.00
2023-03-08T04:59:23.198Z,75.27
2023-03-08T05:01:51.464Z,70.03
2023-03-08T05:04:18.601Z,86.17
2023-03-08T05:06:45.203Z,98.83
2023-03-08T05:09:15.537Z,49.07
2023-03-08T05:11:45.072Z,97.13
2023-03-08T05:14:11.737Z,56.53
2023-03-08T05:16:38.250Z,70.90
2023-03-08T05:19:04.763Z,61.97
2023-03-08T05:21:36.362Z,65.77
2023-03-08T05:24:02.884Z,64.20
2023-03-08T05:26:33.272Z,61.03
2023-03-08T05:29:03.712Z,62.30
2023-03-08T05:31:31.327Z,66.63
2023-03-08T05:33:59.644Z,68.20
2023-03-08T05:36:36.652Z,65.07
2023-03-08T05:39:06.875Z,62.80
2023-03-08T05:41:42.514Z,76.13
2023-03-08T05:44:09.556Z,72.90
2023-03-08T05:46:40.496Z,64.10
2023-03-08T05:49:08.672Z,64.80
2023-03-08T05:51:36.166Z,52.37
2023-03-08T05:54:03.256Z,55.53
2023-03-08T05:56:32.162Z,52.50
2023-03-08T05:59:07.205Z,43.63
2023-03-08T06:01:33.786Z,69.87
2023-03-08T06:04:09.781Z,91.37
2023-03-08T06:06:39.292Z,57.97
2023-03-08T06:09:06.031Z,68.30
2023-03-08T06:11:35.230Z,63.57
2023-03-08T06:14:02.587Z,71.37
2023-03-08T06:16:31.563Z,47.90
2023-03-08T06:18:58.110Z,100.77
2023-03-08T06:21:25.695Z,62.57
2023-03-08T06:23:58.773Z,70.20
2023-03-08T06:26:25.215Z,57.03
2023-03-08T06:28:51.966Z,68.23
2023-03-08T06:31:19.091Z,49.10
2023-03-08T06:33:45.918Z,49.80
2023-03-08T06:36:18.673Z,54.93
2023-03-08T06:38:46.237Z,70.73
2023-03-08T06:41:13.476Z,50.07
2023-03-08T06:43:40.116Z,58.97
2023-03-08T06:46:08.560Z,68.07
2023-03-08T06:48:35.537Z,65.70
2023-03-08T06:51:02.094Z,46.23
2023-03-08T06:53:28.528Z,47.67
2023-03-08T06:56:03.076Z,53.37
2023-03-08T06:58:31.657Z,49.60
2023-03-08T07:00:59.898Z,49.00
2023-03-08T07:03:27.015Z,67.80
2023-03-08T07:05:57.913Z,53.70
2023-03-08T07:08:24.384Z,62.50
2023-03-08T07:10:50.805Z,50.03
2023-03-08T07:13:17.526Z,34.67
2023-03-08T07:15:44.011Z,41.40
2023-03-08T07:18:10.446Z,34.93
2023-03-08T07:20:36.909Z,32.17
2023-03-08T07:23:03.806Z,44.60
2023-03-08T07:25:30.265Z,41.00
2023-03-08T07:27:58.294Z,37.47
2023-03-08T07:30:24.757Z,34.93
2023-03-08T07:32:52.697Z,37.97
2023-03-08T07:35:19.297Z,52.43
2023-03-08T07:37:46.684Z,49.13
2023-03-08T07:40:14.826Z,54.63
2023-03-08T07:42:41.284Z,34.47
2023-03-08T07:45:26.214Z,42.23
2023-03-08T07:47:52.994Z,40.10
2023-03-08T07:50:19.929Z,35.87
2023-03-08T07:52:46.696Z,36.60
2023-03-08T07:55:13.361Z,44.47
2023-03-08T07:57:39.887Z,42.83
2023-03-08T08:00:09.762Z,34.87
2023-03-08T08:02:39.359Z,48.93
2023-03-08T08:05:06.100Z,42.13
2023-03-08T08:07:32.575Z,57.07
2023-03-08T08:09:59.028Z,31.90
2023-03-08T08:12:25.512Z,32.77
2023-03-08T08:14:52.964Z,29.07
2023-03-08T08:17:19.843Z,36.50
2023-03-08T08:19:46.333Z,28.63
2023-03-08T08:22:12.843Z,25.30
2023-03-08T08:24:39.325Z,31.93
2023-03-08T08:27:06.150Z,33.43
2023-03-08T08:29:32.602Z,49.10
2023-03-08T08:31:59.090Z,25.13
2023-03-08T08:34:25.598Z,36.27
2023-03-08T08:36:52.056Z,36.87
2023-03-08T08:39:18.545Z,51.97
2023-03-08T08:41:44.969Z,48.23
2023-03-08T08:44:11.409Z,44.63
2023-03-08T08:46:38.178Z,54.40
2023-03-08T08:49:07.596Z,45.77
2023-03-08T08:51:34.165Z,48.13
2023-03-08T08:54:00.760Z,55.20
2023-03-08T08:56:28.648Z,37.30
2023-03-08T08:59:00.302Z,43.80
2023-03-08T09:01:28.609Z,40.30
2023-03-08T09:03:55.307Z,41.77
2023-03-08T09:06:22.867Z,34.37
2023-03-08T09:08:50.345Z,36.40
2023-03-08T09:11:17.161Z,45.70
2023-03-08T09:13:43.657Z,34.77
2023-03-08T09:16:26.259Z,50.77
2023-03-08T09:18:53.471Z,32.13
2023-03-08T09:21:20.123Z,47.67
2023-03-08T09:23:46.679Z,37.70
2023-03-08T09:26:13.151Z,28.60
2023-03-08T09:28:39.685Z,48.47
2023-03-08T09:31:11.938Z,45.80
2023-03-08T09:33:42.653Z,44.83
2023-03-08T09:36:09.340Z,51.53
2023-03-08T09:38:35.844Z,37.17
2023-03-08T09:41:02.272Z,38.93
2023-03-08T09:43:38.426Z,42.47
2023-03-08T09:46:05.432Z,34.07
2023-03-08T09:48:32.313Z,40.73
2023-03-08T09:51:01.727Z,43.50
2023-03-08T09:53:30.547Z,57.27
2023-03-08T09:55:57.159Z,32.00
2023-03-08T09:58:42.419Z,46.67
2023-03-08T10:01:28.104Z,41.53
2023-03-08T10:03:57.582Z,40.27
2023-03-08T10:06:33.835Z,33.53
2023-03-08T10:09:00.291Z,52.77
2023-03-08T10:11:44.379Z,59.73
2023-03-08T10:14:18.846Z,44.63
2023-03-08T10:16:48.679Z,39.93
2023-03-08T10:19:15.100Z,47.67
2023-03-08T10:21:43.284Z,37.17
2023-03-08T10:24:15.406Z,45.40
2023-03-08T10:26:43.201Z,47.77
2023-03-08T10:29:13.394Z,49.03
2023-03-08T10:31:42.440Z,34.13
2023-03-08T10:34:08.901Z,45.73
2023-03-08T10:36:35.380Z,44.23
2023-03-08T10:39:06.947Z,31.90
2023-03-08T10:41:37.596Z,36.17
2023-03-08T10:44:04.300Z,46.13
2023-03-08T10:46:33.115Z,46.67
2023-03-08T10:49:10.162Z,31.10
2023-03-08T10:51:36.633Z,47.93
2023-03-08T10:54:04.598Z,37.20
2023-03-08T10:56:37.731Z,58.90
2023-03-08T10:59:05.966Z,41.97
2023-03-08T11:01:34.205Z,45.33
2023-03-08T11:04:02.238Z,31.30
2023-03-08T11:06:29.241Z,49.67
2023-03-08T11:08:57.199Z,39.30
2023-03-08T11:11:23.697Z,31.53
2023-03-08T11:13:51.824Z,41.50
2023-03-08T11:16:33.891Z,44.90
2023-03-08T11:19:19.168Z,56.40
2023-03-08T11:21:45.687Z,47.73
2023-03-08T11:24:12.197Z,37.07
2023-03-08T11:26:50.307Z,29.20
2023-03-08T11:29:37.227Z,43.10
2023-03-08T11:32:24.073Z,61.83
2023-03-08T11:34:56.766Z,43.07
2023-03-08T11:37:27.609Z,34.40
2023-03-08T11:40:05.852Z,38.17
2023-03-08T11:42:50.986Z,46.97
2023-03-08T11:45:20.985Z,51.50
2023-03-08T11:47:57.409Z,38.33
2023-03-08T11:50:26.871Z,47.77
2023-03-08T11:52:59.936Z,40.37
2023-03-08T11:55:52.939Z,49.53
2023-03-08T11:58:20.415Z,79.07
2023-03-08T12:00:48.218Z,56.50
2023-03-08T12:03:16.787Z,60.20
2023-03-08T12:05:49.860Z,59.63
2023-03-08T12:08:19.465Z,44.87
2023-03-08T12:10:49.894Z,40.63
2023-03-08T12:13:51.999Z,42.93
2023-03-08T12:16:23.211Z,54.00
2023-03-08T12:19:00.867Z,61.77
2023-03-08T12:21:34.426Z,28.03
2023-03-08T12:24:13.078Z,50.87
2023-03-08T12:26:41.460Z,65.80
2023-03-08T12:29:15.300Z,49.83
2023-03-08T12:31:44.784Z,27.23
2023-03-08T12:34:13.391Z,45.43
2023-03-08T12:36:41.579Z,34.23
2023-03-08T12:39:10.180Z,43.03
2023-03-08T12:41:36.765Z,34.37
2023-03-08T12:44:04.859Z,34.37
2023-03-08T12:47:01.913Z,24.97
2023-03-08T12:49:37.450Z,31.23
2023-03-08T12:52:06.561Z,43.53
2023-03-08T12:54:34.661Z,30.47
2023-03-08T12:57:04.019Z,23.83
2023-03-08T12:59:37.554Z,31.67
2023-03-08T13:02:22.922Z,27.90
2023-03-08T13:04:49.510Z,25.43
2023-03-08T13:07:25.626Z,20.97
2023-03-08T13:09:58.557Z,31.77
2023-03-08T13:12:40.178Z,49.70
2023-03-08T13:15:13.846Z,23.50
2023-03-08T13:17:41.437Z,26.00
2023-03-08T13:20:41.735Z,26.50
2023-03-08T13:23:08.598Z,32.63
2023-03-08T13:25:41.265Z,18.73
2023-03-08T13:28:12.709Z,30.20
2023-03-08T13:30:49.744Z,23.60
2023-03-08T13:33:24.810Z,21.30
2023-03-08T13:35:55.379Z,31.37
2023-03-08T13:38:23.089Z,33.93
2023-03-08T13:40:53.456Z,48.53
2023-03-08T13:43:21.926Z,26.93
2023-03-08T13:45:48.898Z,20.03
2023-03-08T13:48:15.699Z,20.63
2023-03-08T13:50:43.663Z,20.23
2023-03-08T13:53:14.000Z,24.10
2023-03-08T13:55:43.885Z,22.30
2023-03-08T13:58:21.962Z,18.63
2023-03-08T14:00:57.501Z,17.57
2023-03-08T14:03:24.357Z,18.37
2023-03-08T14:05:50.873Z,19.50
2023-03-08T14:08:23.350Z,26.13
2023-03-08T14:11:00.502Z,21.43
2023-03-08T14:13:31.294Z,19.53
2023-03-08T14:16:02.015Z,20.47
2023-03-08T14:18:34.158Z,22.03
2023-03-08T14:21:01.732Z,20.10
2023-03-08T14:23:28.474Z,20.80
2023-03-08T14:25:58.632Z,22.27
2023-03-08T14:28:35.159Z,24.70
2023-03-08T14:31:01.663Z,19.27
2023-03-08T14:33:41.710Z,20.67
2023-03-08T14:36:09.886Z,22.73
2023-03-08T14:38:36.501Z,18.13
2023-03-08T14:41:06.270Z,18.00
2023-03-08T14:43:33.106Z,20.10
2023-03-08T14:46:01.358Z,20.43
2023-03-08T14:48:32.488Z,19.33
2023-03-08T14:51:00.062Z,18.23
2023-03-08T14:53:29.406Z,20.07
2023-03-08T14:55:56.527Z,24.03
2023-03-08T14:58:25.302Z,22.27
2023-03-08T15:00:52.820Z,31.23
2023-03-08T15:03:19.505Z,30.00
2023-03-08T15:05:46.587Z,25.97
2023-03-08T15:08:13.766Z,23.27
2023-03-08T15:10:41.001Z,26.80
2023-03-08T15:13:12.187Z,30.40
2023-03-08T15:15:38.622Z,20.47
2023-03-08T15:18:05.369Z,20.03
2023-03-08T15:20:32.072Z,24.40
2023-03-08T15:23:05.258Z,24.87
2023-03-08T15:25:34.063Z,25.63
2023-03-08T15:28:01.437Z,27.70
2023-03-08T15:30:28.847Z,28.93
2023-03-08T15:32:57.878Z,24.40
2023-03-08T15:35:25.801Z,24.17
2023-03-08T15:37:52.213Z,26.30
2023-03-08T15:40:20.398Z,25.63
2023-03-08T15:42:46.946Z,23.67
2023-03-08T15:45:14.147Z,29.50
2023-03-08T15:47:40.772Z,36.87
2023-03-08T15:50:12.984Z,33.73
2023-03-08T15:52:39.537Z,26.27
2023-03-08T15:55:07.620Z,26.33
2023-03-08T15:57:34.805Z,30.03
2023-03-08T16:00:01.316Z,43.83
2023-03-08T16:02:37.456Z,31.70
2023-03-08T16:05:04.831Z,39.20
2023-03-08T16:07:31.372Z,39.17
2023-03-08T16:09:57.842Z,40.10
2023-03-08T16:12:24.309Z,29.60
2023-03-08T16:14:50.959Z,31.80
2023-03-08T16:17:18.163Z,27.67
2023-03-08T16:19:44.783Z,39.37
2023-03-08T16:22:11.732Z,28.50
2023-03-08T16:24:38.365Z,42.77
2023-03-08T16:27:05.383Z,29.00
2023-03-08T16:29:32.633Z,35.13
2023-03-08T16:31:59.461Z,32.83
2023-03-08T16:34:26.375Z,41.97
2023-03-08T16:36:53.017Z,35.63
2023-03-08T16:39:19.573Z,35.90
2023-03-08T16:41:46.096Z,29.57
2023-03-08T16:44:22.624Z,38.67
2023-03-08T16:46:49.579Z,38.77
2023-03-08T16:49:16.604Z,43.57
2023-03-08T16:51:43.381Z,49.93
2023-03-08T16:54:11.288Z,34.27
2023-03-08T16:56:37.753Z,42.03
2023-03-08T16:59:04.349Z,39.83
2023-03-08T17:01:31.489Z,33.33
2023-03-08T17:03:58.261Z,54.03
2023-03-08T17:06:27.888Z,36.50
2023-03-08T17:08:54.407Z,43.67
2023-03-08T17:11:22.502Z,57.60
2023-03-08T17:13:53.002Z,50.00
2023-03-08T17:16:20.589Z,38.03
2023-03-08T17:18:47.879Z,39.57
2023-03-08T17:21:14.295Z,39.10
2023-03-08T17:23:41.042Z,56.93
2023-03-08T17:26:08.449Z,50.87
2023-03-08T17:28:35.057Z,41.37
2023-03-08T17:31:01.960Z,57.60
2023-03-08T17:33:28.435Z,54.80
2023-03-08T17:35:56.665Z,46.70
2023-03-08T17:38:23.271Z,42.67
2023-03-08T17:41:05.436Z,50.08
2023-03-08T17:43:31.966Z,37.27
2023-03-08T17:46:01.600Z,43.87
2023-03-08T17:48:28.226Z,44.33
2023-03-08T17:50:54.650Z,46.10
2023-03-08T17:53:21.079Z,44.83
2023-03-08T17:55:47.559Z,35.10
2023-03-08T17:58:14.056Z,51.77
2023-03-08T18:00:40.523Z,37.07
2023-03-08T18:03:06.998Z,42.27
2023-03-08T18:05:33.503Z,46.37
2023-03-08T18:08:00.130Z,51.57
2023-03-08T18:10:26.596Z,34.70
2023-03-08T18:12:53.170Z,35.60
2023-03-08T18:15:19.603Z,40.00
2023-03-08T18:17:46.417Z,40.10
2023-03-08T18:20:13.089Z,44.27
2023-03-08T18:22:40.893Z,45.50
2023-03-08T18:25:07.526Z,41.97
2023-03-08T18:27:34.014Z,38.40
2023-03-08T18:30:00.494Z,50.00
2023-03-08T18:32:28.668Z,49.70
2023-03-08T18:34:55.180Z,37.40
2023-03-08T18:37:21.617Z,39.57
2023-03-08T18:39:52.399Z,38.50
2023-03-08T18:42:18.916Z,35.10
2023-03-08T18:44:45.386Z,54.73
2023-03-08T18:47:11.863Z,47.67
2023-03-08T18:49:38.459Z,52.13
2023-03-08T18:52:05.192Z,45.97
2023-03-08T18:54:31.690Z,38.13
2023-03-08T18:56:59.177Z,36.97
2023-03-08T18:59:26.537Z,40.77
2023-03-08T19:01:54.150Z,42.67
2023-03-08T19:04:20.697Z,45.57
2023-03-08T19:06:47.229Z,46.17
2023-03-08T19:09:15.863Z,47.70
2023-03-08T19:11:42.373Z,73.97
2023-03-08T19:14:11.106Z,45.73
2023-03-08T19:16:37.705Z,57.60
2023-03-08T19:19:05.698Z,55.10
2023-03-08T19:21:52.510Z,50.00
2023-03-08T19:24:19.635Z,48.43
2023-03-08T19:26:50.170Z,49.50
2023-03-08T19:29:27.238Z,46.93
2023-03-08T19:31:53.716Z,41.97
2023-03-08T19:34:21.984Z,50.23
2023-03-08T19:36:48.923Z,75.80
2023-03-08T19:39:23.155Z,55.00
2023-03-08T19:41:53.969Z,41.20
2023-03-08T19:44:21.209Z,41.50
2023-03-08T19:46:47.770Z,64.90
2023-03-08T19:49:16.103Z,65.10
2023-03-08T19:51:42.885Z,51.27
2023-03-08T19:54:09.379Z,42.50
2023-03-08T19:56:35.934Z,54.57
2023-03-08T19:59:02.458Z,49.77
2023-03-08T20:01:28.991Z,46.20
2023-03-08T20:03:55.891Z,47.53
2023-03-08T20:06:23.738Z,45.83
2023-03-08T20:08:50.665Z,64.33
2023-03-08T20:11:17.277Z,74.70
2023-03-08T20:13:44.024Z,54.63
2023-03-08T20:16:10.772Z,65.37
2023-03-08T20:18:37.240Z,52.67
2023-03-08T20:21:04.459Z,82.73
2023-03-08T20:23:31.749Z,64.50
2023-03-08T20:26:01.416Z,90.07
2023-03-08T20:28:28.073Z,83.47
2023-03-08T20:30:55.071Z,66.77
2023-03-08T20:33:21.538Z,49.90
2023-03-08T20:35:56.215Z,95.70
2023-03-08T20:38:22.786Z,61.50
2023-03-08T20:41:18.782Z,75.20
2023-03-08T20:43:46.104Z,95.00
2023-03-08T20:46:13.490Z,67.63
2023-03-08T20:48:41.320Z,52.80
2023-03-08T20:51:08.655Z,71.43
2023-03-08T20:53:35.555Z,57.63
2023-03-08T20:56:06.093Z,50.40
2023-03-08T20:58:32.653Z,72.20
2023-03-08T21:00:59.081Z,97.73
2023-03-08T21:03:25.558Z,75.57
2023-03-08T21:05:52.036Z,78.17
2023-03-08T21:08:18.605Z,82.77
2023-03-08T21:10:45.274Z,113.87
2023-03-08T21:13:14.796Z,59.17
2023-03-08T21:15:41.322Z,91.50
2023-03-08T21:18:07.803Z,93.13
2023-03-08T21:20:37.617Z,81.50
2023-03-08T21:23:04.073Z,90.23
2023-03-08T21:25:33.077Z,101.20
2023-03-08T21:27:59.496Z,61.00
2023-03-08T21:30:27.316Z,91.90
2023-03-08T21:32:53.853Z,66.17
2023-03-08T21:35:20.277Z,79.90
2023-03-08T21:37:47.092Z,118.93
2023-03-08T21:40:13.818Z,59.03
2023-03-08T21:42:40.296Z,87.93
2023-03-08T21:45:07.030Z,62.47
2023-03-08T21:47:33.484Z,67.40
2023-03-08T21:49:59.909Z,102.37
2023-03-08T21:52:26.537Z,95.50
2023-03-08T21:54:53.050Z,104.03
2023-03-08T21:57:19.492Z,109.60
2023-03-08T21:59:46.101Z,85.70
2023-03-08T22:02:12.830Z,105.20
2023-03-08T22:04:39.422Z,77.03
2023-03-08T22:07:05.921Z,108.07
2023-03-08T22:09:32.394Z,70.27
2023-03-08T22:11:59.326Z,114.83
2023-03-08T22:14:26.371Z,77.33
2023-03-08T22:16:54.670Z,110.17
2023-03-08T22:19:21.077Z,92.50
2023-03-08T22:21:47.578Z,65.13
2023-03-08T22:24:14.041Z,71.50
2023-03-08T22:26:40.487Z,87.37
2023-03-08T22:29:06.946Z,104.33
2023-03-08T22:31:33.478Z,72.97
2023-03-08T22:34:01.330Z,83.87
2023-03-08T22:36:27.813Z,91.33
2023-03-08T22:38:54.561Z,109.27
2023-03-08T22:41:22.717Z,75.23
2023-03-08T22:43:49.368Z,65.20
2023-03-08T22:46:23.587Z,111.40
2023-03-08T22:48:50.728Z,144.47
2023-03-08T22:51:18.239Z,86.07
2023-03-08T22:53:44.778Z,107.47
2023-03-08T22:56:18.807Z,143.37
2023-03-08T22:58:45.510Z,94.27
2023-03-08T23:01:13.234Z,109.07
2023-03-08T23:03:39.819Z,129.73
2023-03-08T23:06:06.492Z,118.53
2023-03-08T23:08:32.935Z,124.17
2023-03-08T23:10:59.410Z,90.17
2023-03-08T23:13:33.762Z,111.70
2023-03-08T23:16:01.162Z,141.50
2023-03-08T23:18:27.675Z,68.87
2023-03-08T23:20:54.246Z,109.07
2023-03-08T23:23:24.847Z,111.50
2023-03-08T23:25:51.639Z,91.47
2023-03-08T23:28:18.180Z,96.30
2023-03-08T23:30:44.641Z,97.33
2023-03-08T23:33:11.100Z,102.07
2023-03-08T23:35:37.572Z,91.30
2023-03-08T23:38:04.026Z,112.40
2023-03-08T23:40:30.489Z,111.30
2023-03-08T23:42:56.955Z,98.00
2023-03-08T23:45:23.506Z,123.77
2023-03-08T23:47:50.130Z,128.20
2023-03-08T23:50:16.719Z,125.87
2023-03-08T23:52:43.226Z,102.33
2023-03-08T23:55:10.014Z,102.07
2023-03-08T23:57:36.468Z,72.70
